KVGT/VGT METAR and TAF weather

Enter ICAO airport designator
Station Type Date Time Source
KVGT METAR 2020/12/05 05:53 UTC NOAA

KVGT 050553Z AUTO 32003KT 10SM CLR 06/M12 A3024 RMK AO2 SLP261 T00561117 10161 20050 53012


Station Type Date Time Source
KVGT Decoded METAR 2020/12/05 05:53 UTC NOAA

NORTH LAS VEGAS, NV, United States (KVGT) 36-12N 115-11W
Dec 05, 2020 - 12:53 AM EST / 2020.12.05 0553 UTC
Wind: from the NW (320 degrees) at 3 MPH (3 KT):0
Visibility: 10 mile(s):0
Sky conditions: clear
Temperature: 42.1 F (5.6 C)
Dew Point: 10.9 F (-11.7 C)
Relative Humidity: 27%
Pressure (altimeter): 30.24 in. Hg (1024 hPa)
Pressure tendency: 0.04 inches (1.2 hPa) higher than three hours ago
ob: KVGT 050553Z AUTO 32003KT 10SM CLR 06/M12 A3024 RMK AO2 SLP261 T00561117 10161 20050 53012
cycle: 6

Station Type Date Time Source
KVGT TAF 2020/12/05 06:28 UTC NOAA

TAF KVGT 050525Z 0506/0606 32006KT P6SM SKC
FM051900 12005KT P6SM FEW250
FM060400 31005KT P6SM FEW250

Example: see airport list